Language: 

Nearby METAR Reports

METAR Reports

Hourly observations from airfields within 50 miles of this weather station

 

EGHH - Bournemouth Airp, United Kingdom
Distance from station: S 10mi, 17km
Updated: Tue, 18-Sep-2018 8:20pm BST
Mostly Cloudy
Mostly Cloudy
 Wind from SW
Wind: SW 10 mph , 17 km/h
Temperature: 18°C
Dew Point: 15°C
Humidity: 83%
Barometer: 1012 hPa
Clouds: Mostly Cloudy
Visibility: 6 miles , 10 km
Cloud details: Mostly Cloudy 1372 m
2018/09/18 19:20 EGHH 181920Z 23009KT 9999 BKN045 18/15 Q1012
EGDM - Boscombe Down, United Kingdom
Distance from station: N 16mi, 26km
Updated: Tue, 18-Sep-2018 7:50pm BST
Mostly Cloudy
Mostly Cloudy
 Wind from SSW
Wind: SSW 16 mph , 26 km/h
Temperature: 17°C
Dew Point: 14°C
Humidity: 83%
Barometer: 1012 hPa
Clouds: Mostly Cloudy
Visibility: 6 miles , 10 km
Cloud details: Partly Cloudy 396 m
Mostly Cloudy 1402 m
2018/09/18 18:50 EGDM 181850Z AUTO 20014KT 9999 SCT013/// BKN046/// 17/14 Q1012 RERA
 
EGVP - Middle Wallop, United Kingdom
Distance from station: NE 17mi, 27km
Updated: Tue, 18-Sep-2018 7:50pm BST
Mostly Cloudy
Mostly Cloudy
 Wind from SSW
Wind: SSW 14 mph , 22 km/h
Temperature: 18°C
Dew Point: 15°C
Humidity: 83%
Barometer: 1012 hPa
Clouds: Mostly Cloudy
Visibility: 6 miles , 10 km
Cloud details: Few Clouds 457 m
Mostly Cloudy 1158 m
2018/09/18 18:50 EGVP 181850Z AUTO 21012KT 9999 // FEW015/// BKN038/// 18/15 Q1012
EGHI - Southampton Wx C, United Kingdom
Distance from station: E 19mi, 31km
Updated: Tue, 18-Sep-2018 8:20pm BST
Few Clouds
Few Clouds
 Wind from SW
Wind: SW 13 mph , 20 km/h
Temperature: 17°C
Dew Point: 14°C
Humidity: 83%
Barometer: 1013 hPa
Clouds: Few Clouds
Visibility: 6 miles , 10 km
Cloud details: Few Clouds 457 m
2018/09/18 19:20 EGHI 181920Z 22011KT 9999 FEW015 17/14 Q1013
 
EGDY - Yeovilton (navy), United Kingdom
Distance from station: W 36mi, 58km
Updated: Tue, 18-Sep-2018 7:50pm BST
Mostly Cloudy
Mostly Cloudy
 Wind from SSW
Wind: SSW 13 mph , 20 km/h
Temperature: 18°C
Dew Point: 15°C
Humidity: 83%
Barometer: 1011 hPa
Clouds: Mostly Cloudy
Visibility: 6 miles , 10 km
Cloud details: Few Clouds 366 m
Mostly Cloudy 1524 m
2018/09/18 18:50 EGDY 181850Z 21011KT 9999 FEW012 BKN050 18/15 Q1011 BLU BECMG 9999 SCT012 GRN
EGVO - Odiham Raf, United Kingdom
Distance from station: ENE 42mi, 68km
Updated: Tue, 18-Sep-2018 7:50pm BST
Mostly Cloudy
Mostly Cloudy
 Wind from SSW
Wind: SSW 16 mph , 26 km/h
Temperature: 18°C
Dew Point: 14°C
Humidity: 78%
Barometer: 1012 hPa
Clouds: Mostly Cloudy
Visibility: 6 miles , 10 km
Cloud details: Few Clouds 457 m
Mostly Cloudy 1219 m
2018/09/18 18:50 EGVO 181850Z 21014KT 9999 FEW015 BKN040 18/14 Q1012 BLU TEMPO SCT015 WHT

Metar display script from Saratoga-Weather.org

top of page button